createdAt,value
2019-02-14T00:01:27.447Z,23.70
2019-02-14T00:03:55.647Z,24.43
2019-02-14T00:06:23.867Z,22.50
2019-02-14T00:08:52.108Z,24.25
2019-02-14T00:11:20.269Z,24.87
2019-02-14T00:13:48.481Z,22.82
2019-02-14T00:16:16.554Z,21.87
2019-02-14T00:18:44.620Z,20.30
2019-02-14T00:21:12.759Z,20.68
2019-02-14T00:23:41.894Z,19.77
2019-02-14T00:26:10.015Z,19.80
2019-02-14T00:28:38.424Z,19.45
2019-02-14T00:31:06.768Z,21.10
2019-02-14T00:33:35.395Z,20.43
2019-02-14T00:36:03.671Z,20.70
2019-02-14T00:38:31.929Z,19.52
2019-02-14T00:41:00.158Z,19.55
2019-02-14T00:43:28.216Z,19.77
2019-02-14T00:45:56.469Z,19.05
2019-02-14T00:48:24.755Z,19.25
2019-02-14T00:50:52.983Z,19.87
2019-02-14T00:53:21.307Z,20.72
2019-02-14T00:55:49.639Z,20.45
2019-02-14T00:58:17.958Z,21.48
2019-02-14T01:00:46.192Z,22.80
2019-02-14T01:03:14.499Z,21.87
2019-02-14T01:05:42.760Z,22.93
2019-02-14T01:08:10.851Z,22.00
2019-02-14T01:10:39.076Z,22.05
2019-02-14T01:13:07.463Z,23.00
2019-02-14T01:15:36.605Z,21.80
2019-02-14T01:18:04.757Z,22.58
2019-02-14T01:20:34.286Z,21.82
2019-02-14T01:23:02.524Z,22.62
2019-02-14T01:25:30.725Z,22.00
2019-02-14T01:27:58.913Z,21.12
2019-02-14T01:30:27.134Z,22.62
2019-02-14T01:32:55.262Z,20.97
2019-02-14T01:35:23.504Z,20.30
2019-02-14T01:37:51.612Z,20.30
2019-02-14T01:40:19.831Z,20.80
2019-02-14T01:42:48.006Z,19.48
2019-02-14T01:45:16.214Z,18.52
2019-02-14T01:47:44.340Z,19.52
2019-02-14T01:50:12.601Z,19.37
2019-02-14T01:52:40.908Z,19.10
2019-02-14T01:55:09.138Z,19.40
2019-02-14T01:57:37.360Z,19.53
2019-02-14T02:00:07.584Z,19.20
2019-02-14T02:02:35.652Z,18.55
2019-02-14T02:05:04.053Z,17.55
2019-02-14T02:07:32.296Z,18.80
2019-02-14T02:10:00.568Z,19.10
2019-02-14T02:12:28.980Z,19.50
2019-02-14T02:14:56.910Z,19.57
2019-02-14T02:17:25.447Z,18.85
2019-02-14T02:19:53.799Z,18.45
2019-02-14T02:22:21.989Z,19.30
2019-02-14T02:24:50.236Z,20.08
2019-02-14T02:27:18.480Z,20.90
2019-02-14T02:29:46.771Z,18.95
2019-02-14T02:32:15.113Z,21.05
2019-02-14T02:34:44.546Z,20.10
2019-02-14T02:37:12.766Z,21.12
2019-02-14T02:39:41.977Z,20.55
2019-02-14T02:42:10.208Z,20.02
2019-02-14T02:44:38.428Z,19.95
2019-02-14T02:47:06.151Z,20.43
2019-02-14T02:49:34.565Z,19.60
2019-02-14T02:52:02.799Z,19.27
2019-02-14T02:54:30.932Z,20.10
2019-02-14T02:56:59.143Z,20.70
2019-02-14T02:59:27.379Z,20.85
2019-02-14T03:01:55.322Z,20.50
2019-02-14T03:04:23.460Z,19.50
2019-02-14T03:06:51.776Z,19.48
2019-02-14T03:09:20.956Z,20.00
2019-02-14T03:11:49.257Z,19.77
2019-02-14T03:14:18.675Z,19.60
2019-02-14T03:16:46.920Z,19.70
2019-02-14T03:19:15.209Z,19.82
2019-02-14T03:21:43.229Z,19.15
2019-02-14T03:24:12.355Z,18.85
2019-02-14T03:26:40.600Z,19.52
2019-02-14T03:29:08.610Z,18.80
2019-02-14T03:31:36.843Z,19.90
2019-02-14T03:34:06.330Z,20.00
2019-02-14T03:36:34.365Z,20.95
2019-02-14T03:39:03.800Z,19.92
2019-02-14T03:41:32.294Z,20.80
2019-02-14T03:44:00.614Z,20.50
2019-02-14T03:46:29.779Z,19.52
2019-02-14T03:48:59.583Z,20.05
2019-02-14T03:51:28.621Z,20.95
2019-02-14T03:53:57.672Z,21.68
2019-02-14T03:56:25.860Z,21.80
2019-02-14T03:58:54.153Z,20.50
2019-02-14T04:01:22.307Z,20.53
2019-02-14T04:03:50.572Z,21.93
2019-02-14T04:06:26.986Z,20.80
2019-02-14T04:08:48.660Z,20.25
2019-02-14T04:11:16.968Z,21.40
2019-02-14T04:13:45.215Z,20.17
2019-02-14T04:16:13.311Z,21.05
2019-02-14T04:18:41.486Z,21.23
2019-02-14T04:23:06.723Z,21.30
2019-02-14T04:25:34.887Z,22.87
2019-02-14T04:28:02.959Z,21.10
2019-02-14T04:30:32.786Z,20.30
2019-02-14T04:33:02.160Z,21.60
2019-02-14T04:35:30.126Z,20.97
2019-02-14T04:37:58.384Z,20.05
2019-02-14T04:40:33.464Z,19.93
2019-02-14T04:42:56.760Z,20.17
2019-02-14T04:45:24.774Z,19.82
2019-02-14T04:47:53.013Z,19.70
2019-02-14T04:50:21.444Z,18.65
2019-02-14T04:52:49.719Z,20.25
2019-02-14T04:55:17.869Z,20.62
2019-02-14T04:57:47.592Z,21.52
2019-02-14T05:00:15.880Z,21.25
2019-02-14T05:02:45.381Z,20.90
2019-02-14T05:05:13.523Z,21.87
2019-02-14T05:07:41.718Z,22.13
2019-02-14T05:10:09.758Z,19.90
2019-02-14T05:12:37.660Z,20.20
2019-02-14T05:15:06.197Z,20.77
2019-02-14T05:17:34.544Z,19.67
2019-02-14T05:20:02.747Z,19.77
2019-02-14T05:22:31.054Z,20.10
2019-02-14T05:24:59.307Z,20.40
2019-02-14T05:27:27.515Z,20.85
2019-02-14T05:29:55.577Z,21.00
2019-02-14T05:32:23.861Z,21.60
2019-02-14T05:34:51.994Z,20.70
2019-02-14T05:37:20.068Z,19.50
2019-02-14T05:39:48.256Z,20.23
2019-02-14T05:42:16.337Z,20.32
2019-02-14T05:44:44.534Z,19.60
2019-02-14T05:47:12.652Z,25.10
2019-02-14T05:49:40.866Z,30.17
2019-02-14T05:52:09.112Z,28.02
2019-02-14T05:54:37.005Z,54.93
2019-02-14T05:57:05.191Z,21.80
2019-02-14T05:59:33.230Z,26.30
2019-02-14T06:02:01.424Z,24.12
2019-02-14T06:04:29.770Z,20.62
2019-02-14T06:07:01.127Z,16.70
2019-02-14T06:09:29.183Z,16.57
2019-02-14T06:11:57.513Z,17.17
2019-02-14T06:14:25.853Z,16.95
2019-02-14T06:16:54.062Z,17.62
2019-02-14T06:19:22.201Z,16.90
2019-02-14T06:21:50.274Z,17.40
2019-02-14T06:24:18.455Z,17.50
2019-02-14T06:26:46.706Z,17.95
2019-02-14T06:29:15.030Z,17.85
2019-02-14T06:31:43.189Z,17.42
2019-02-14T06:34:11.394Z,17.87
2019-02-14T06:36:39.604Z,19.10
2019-02-14T06:39:07.880Z,17.02
2019-02-14T06:41:35.923Z,18.07
2019-02-14T06:44:04.035Z,17.50
2019-02-14T06:46:32.334Z,18.40
2019-02-14T06:49:00.611Z,18.12
2019-02-14T06:51:28.990Z,18.17
2019-02-14T06:53:58.428Z,17.35
2019-02-14T06:56:26.785Z,15.90
2019-02-14T06:58:54.819Z,16.30
2019-02-14T07:01:22.972Z,16.83
2019-02-14T07:03:51.308Z,15.90
2019-02-14T07:06:19.552Z,15.25
2019-02-14T07:08:47.683Z,15.53
2019-02-14T07:11:16.004Z,16.45
2019-02-14T07:13:44.205Z,15.80
2019-02-14T07:16:12.167Z,15.60
2019-02-14T07:18:40.636Z,16.00
2019-02-14T07:21:08.982Z,15.95
2019-02-14T07:23:37.255Z,15.90
2019-02-14T07:26:07.196Z,15.97
2019-02-14T07:28:35.538Z,16.23
2019-02-14T07:31:03.744Z,15.23
2019-02-14T07:33:31.926Z,18.17
2019-02-14T07:36:02.418Z,18.93
2019-02-14T07:38:32.299Z,18.12
2019-02-14T07:41:00.352Z,18.98
2019-02-14T07:43:28.712Z,18.00
2019-02-14T07:45:56.933Z,16.90
2019-02-14T07:48:25.611Z,16.65
2019-02-14T07:50:53.865Z,20.95
2019-02-14T07:53:22.092Z,16.75
2019-02-14T07:55:50.308Z,13.32
2019-02-14T07:58:18.438Z,14.95
2019-02-14T08:00:46.823Z,15.35
2019-02-14T08:03:14.831Z,16.90
2019-02-14T08:05:43.067Z,13.35
2019-02-14T08:08:11.996Z,14.45
2019-02-14T08:10:54.286Z,11.80
2019-02-14T08:13:40.228Z,11.85
2019-02-14T08:16:25.457Z,12.10
2019-02-14T08:19:10.937Z,12.80
2019-02-14T08:21:49.595Z,12.28
2019-02-14T08:24:29.138Z,13.03
2019-02-14T08:27:10.254Z,14.05
2019-02-14T08:29:51.739Z,13.88
2019-02-14T08:32:31.764Z,25.70
2019-02-14T08:35:00.328Z,15.40
2019-02-14T08:37:29.049Z,9.80
2019-02-14T08:39:57.154Z,9.20
2019-02-14T08:42:25.830Z,9.10
2019-02-14T08:44:54.036Z,9.40
2019-02-14T08:47:22.185Z,9.30
2019-02-14T08:49:51.021Z,9.45
2019-02-14T08:52:19.133Z,9.10
2019-02-14T08:54:48.320Z,8.30
2019-02-14T08:57:16.496Z,8.10
2019-02-14T08:59:44.715Z,7.40
2019-02-14T09:02:14.973Z,8.55
2019-02-14T09:04:42.803Z,7.55
2019-02-14T09:07:11.380Z,7.70
2019-02-14T09:09:40.946Z,7.80
2019-02-14T09:12:09.040Z,7.80
2019-02-14T09:14:37.112Z,8.80
2019-02-14T09:17:07.125Z,8.58
2019-02-14T09:19:35.369Z,8.30
2019-02-14T09:22:03.599Z,8.50
2019-02-14T09:24:31.751Z,8.13
2019-02-14T09:27:01.015Z,7.50
2019-02-14T09:29:29.109Z,7.28
2019-02-14T09:31:57.179Z,7.83
2019-02-14T09:34:25.360Z,7.35
2019-02-14T09:36:53.447Z,7.50
2019-02-14T09:39:21.665Z,7.53
2019-02-14T09:41:49.590Z,7.62
2019-02-14T09:44:17.793Z,8.20
2019-02-14T09:46:45.848Z,8.00
2019-02-14T09:49:15.296Z,7.05
2019-02-14T09:51:44.483Z,7.90
2019-02-14T12:45:06.567Z,9.63
2019-02-14T12:48:17.079Z,8.58
2019-02-14T12:51:11.883Z,8.10
2019-02-14T12:53:54.989Z,7.22
2019-02-14T12:56:37.094Z,7.97
2019-02-14T12:59:05.746Z,8.90
2019-02-14T13:01:35.730Z,9.48
2019-02-14T13:04:03.877Z,8.08
2019-02-14T13:06:32.429Z,8.93
2019-02-14T13:09:02.653Z,8.70
2019-02-14T13:11:34.894Z,8.38
2019-02-14T13:14:06.312Z,8.35
2019-02-14T13:16:34.605Z,6.20
2019-02-14T13:19:05.198Z,6.67
2019-02-14T13:21:35.027Z,4.55
2019-02-14T13:24:06.408Z,5.78
2019-02-14T13:26:34.648Z,5.65
2019-02-14T13:29:02.943Z,5.30
2019-02-14T13:31:32.424Z,7.42
2019-02-14T13:34:12.929Z,4.95
2019-02-14T13:36:41.071Z,4.97
2019-02-14T13:39:09.580Z,5.53
2019-02-14T13:41:43.995Z,6.08
2019-02-14T13:44:14.655Z,5.90
2019-02-14T13:46:43.058Z,5.62
2019-02-14T13:49:11.257Z,5.00
2019-02-14T13:51:39.292Z,5.35
2019-02-14T13:54:07.728Z,5.95
2019-02-14T13:56:35.698Z,5.12
2019-02-14T13:59:03.737Z,5.33
2019-02-14T14:01:32.036Z,6.70
2019-02-14T14:04:00.114Z,5.45
2019-02-14T14:06:28.276Z,6.35
2019-02-14T14:08:56.325Z,5.17
2019-02-14T14:11:24.531Z,5.40
2019-02-14T14:13:52.889Z,4.12
2019-02-14T14:16:25.194Z,4.25
2019-02-14T14:18:53.347Z,4.90
2019-02-14T14:21:21.505Z,4.95
2019-02-14T14:23:49.801Z,4.80
2019-02-14T14:26:17.979Z,4.85
2019-02-14T14:28:46.227Z,3.35
2019-02-14T14:31:16.444Z,4.03
2019-02-14T14:33:44.712Z,18.32
2019-02-14T14:36:13.021Z,8.73
2019-02-14T14:38:41.162Z,11.05
2019-02-14T14:41:09.392Z,9.98
2019-02-14T14:43:59.828Z,8.18
2019-02-14T14:46:34.700Z,8.88
2019-02-14T14:49:02.959Z,9.13
2019-02-14T14:51:31.150Z,9.23
2019-02-14T14:53:59.323Z,9.68
2019-02-14T14:56:27.551Z,8.68
2019-02-14T14:58:55.668Z,8.13
2019-02-14T15:01:23.608Z,9.35
2019-02-14T15:03:52.274Z,8.60
2019-02-14T15:06:22.176Z,9.65
2019-02-14T15:08:50.309Z,9.73
2019-02-14T15:11:19.257Z,10.53
2019-02-14T15:13:47.567Z,10.43
2019-02-14T15:16:15.631Z,10.70
2019-02-14T15:18:43.825Z,10.20
2019-02-14T15:21:11.972Z,11.97
2019-02-14T15:23:40.056Z,11.63
2019-02-14T15:26:08.292Z,10.88
2019-02-14T15:28:38.225Z,11.53
2019-02-14T15:31:06.395Z,11.85
2019-02-14T15:33:34.497Z,12.55
2019-02-14T15:36:02.872Z,11.50
2019-02-14T15:38:32.256Z,11.60
2019-02-14T15:41:00.932Z,11.20
2019-02-14T15:43:29.121Z,12.00
2019-02-14T15:45:58.268Z,12.55
2019-02-14T15:48:26.217Z,11.60
2019-02-14T15:50:56.573Z,11.90
2019-02-14T15:53:24.474Z,11.53
2019-02-14T15:55:52.789Z,13.30
2019-02-14T15:58:21.023Z,12.95
2019-02-14T16:00:49.978Z,12.80
2019-02-14T16:03:19.595Z,13.78
2019-02-14T16:05:48.138Z,15.18
2019-02-14T16:08:16.268Z,14.03
2019-02-14T16:10:44.574Z,13.80
2019-02-14T16:13:12.933Z,12.85
2019-02-14T16:15:41.025Z,16.30
2019-02-14T16:20:47.047Z,14.15
2019-02-14T16:23:16.697Z,14.53
2019-02-14T16:25:45.182Z,14.73
2019-02-14T16:28:13.752Z,13.90
2019-02-14T16:30:41.950Z,13.58
2019-02-14T16:33:13.002Z,14.15
2019-02-14T16:35:41.052Z,15.08
2019-02-14T16:38:11.356Z,16.30
2019-02-14T16:40:39.270Z,16.70
2019-02-14T16:43:08.419Z,17.60
2019-02-14T16:45:37.402Z,22.90
2019-02-14T16:48:16.340Z,22.58
2019-02-14T16:50:44.967Z,20.62
2019-02-14T16:53:13.525Z,18.87
2019-02-14T16:55:42.035Z,17.92
2019-02-14T16:58:10.472Z,21.40
2019-02-14T17:00:38.689Z,23.55
2019-02-14T17:03:11.514Z,24.00
2019-02-14T17:05:39.889Z,28.70
2019-02-14T17:08:07.994Z,18.30
2019-02-14T17:10:37.358Z,19.60
2019-02-14T17:13:05.856Z,20.92
2019-02-14T17:15:35.463Z,19.50
2019-02-14T17:18:03.799Z,19.20
2019-02-14T17:20:32.153Z,19.70
2019-02-14T17:23:00.753Z,20.77
2019-02-14T17:25:28.864Z,18.30
2019-02-14T17:27:58.153Z,19.70
2019-02-14T17:30:26.499Z,18.12
2019-02-14T17:32:55.108Z,17.35
2019-02-14T17:35:23.391Z,17.57
2019-02-14T17:37:52.208Z,18.45
2019-02-14T17:40:20.071Z,19.57
2019-02-14T17:42:48.499Z,19.05
2019-02-14T17:45:16.725Z,19.45
2019-02-14T17:47:44.979Z,20.23
2019-02-14T17:50:13.108Z,18.75
2019-02-14T17:52:41.336Z,19.50
2019-02-14T17:55:09.575Z,20.97
2019-02-14T17:57:37.898Z,20.68
2019-02-14T18:00:06.832Z,22.87
2019-02-14T18:02:34.949Z,23.10
2019-02-14T18:05:03.219Z,23.75
2019-02-14T18:07:31.334Z,21.95
2019-02-14T18:09:59.564Z,21.20
2019-02-14T18:12:27.890Z,21.35
2019-02-14T18:14:56.937Z,21.60
2019-02-14T18:17:26.156Z,21.05
2019-02-14T18:19:54.309Z,21.33
2019-02-14T18:22:22.410Z,22.02
2019-02-14T18:24:50.653Z,25.60
2019-02-14T18:27:18.870Z,22.85
2019-02-14T18:29:46.992Z,23.07
2019-02-14T18:32:15.352Z,23.57
2019-02-14T18:34:43.457Z,20.72
2019-02-14T18:37:11.772Z,20.27
2019-02-14T18:39:39.922Z,19.37
2019-02-14T18:42:08.196Z,18.67
2019-02-14T18:44:36.235Z,20.30
2019-02-14T18:47:04.417Z,18.15
2019-02-14T18:49:32.631Z,19.30
2019-02-14T18:52:00.811Z,20.20
2019-02-14T18:54:30.675Z,20.15
2019-02-14T18:56:59.827Z,21.20
2019-02-14T18:59:28.117Z,21.40
2019-02-14T19:01:56.317Z,21.95
2019-02-14T19:04:24.660Z,19.30
2019-02-14T19:06:52.979Z,17.97
2019-02-14T19:09:22.021Z,19.77
2019-02-14T19:11:50.182Z,20.70
2019-02-14T19:14:18.426Z,20.27
2019-02-14T19:16:46.712Z,21.42
2019-02-14T19:19:46.860Z,27.52
2019-02-14T19:22:14.809Z,29.25
2019-02-14T19:24:44.369Z,21.93
2019-02-14T19:27:12.498Z,23.25
2019-02-14T19:29:40.797Z,21.20
2019-02-14T19:32:10.798Z,21.90
2019-02-14T19:34:41.230Z,21.77
2019-02-14T19:37:09.962Z,21.48
2019-02-14T19:39:38.060Z,22.00
2019-02-14T19:42:06.245Z,19.67
2019-02-14T19:44:34.108Z,19.53
2019-02-14T19:47:04.278Z,20.50
2019-02-14T19:49:32.862Z,18.25
2019-02-14T19:52:01.317Z,18.95
2019-02-14T19:54:29.926Z,24.40
2019-02-14T19:56:58.558Z,27.67
2019-02-14T19:59:27.035Z,20.63
2019-02-14T20:01:55.429Z,21.42
2019-02-14T20:04:24.350Z,22.02
2019-02-14T20:06:53.094Z,18.67
2019-02-14T20:09:21.344Z,19.55
2019-02-14T20:11:49.772Z,18.92
2019-02-14T20:14:18.012Z,19.20
2019-02-14T20:16:45.911Z,17.80
2019-02-14T20:19:17.567Z,19.25
2019-02-14T20:21:45.627Z,18.52
2019-02-14T20:24:13.785Z,20.47
